createdAt,value
2018-12-22T00:01:07.773Z,88.50
2018-12-22T00:05:11.894Z,88.30
2018-12-22T00:13:35.973Z,88.50
2018-12-22T00:17:40.089Z,88.80
2018-12-22T00:21:44.213Z,88.80
2018-12-22T00:25:48.281Z,89.10
2018-12-22T00:29:52.365Z,89.60
2018-12-22T00:33:56.594Z,90.20
2018-12-22T00:38:00.693Z,90.40
2018-12-22T00:42:04.786Z,90.60
2018-12-22T00:46:09.006Z,90.60
2018-12-22T00:50:13.146Z,90.30
2018-12-22T00:54:18.139Z,90.30
2018-12-22T00:58:30.534Z,90.40
2018-12-22T01:02:28.589Z,90.40
2018-12-22T01:06:32.653Z,90.30
2018-12-22T01:10:36.764Z,90.60
2018-12-22T01:14:40.884Z,90.70
2018-12-22T01:18:45.081Z,90.80
2018-12-22T01:22:49.199Z,90.80
2018-12-22T01:26:53.369Z,91.00
2018-12-22T01:30:57.459Z,90.90
2018-12-22T01:35:01.564Z,90.90
2018-12-22T01:39:06.757Z,91.00
2018-12-22T01:43:11.721Z,90.90
2018-12-22T01:47:15.768Z,90.80
2018-12-22T01:51:19.869Z,90.70
2018-12-22T01:55:24.021Z,90.50
2018-12-22T01:59:28.179Z,90.40
2018-12-22T02:03:32.309Z,90.70
2018-12-22T02:07:36.389Z,90.80
2018-12-22T02:11:40.472Z,90.80
2018-12-22T02:15:44.602Z,90.40
2018-12-22T02:19:48.746Z,90.40
2018-12-22T02:23:52.836Z,90.50
2018-12-22T02:27:56.915Z,90.70
2018-12-22T02:32:01.011Z,90.80
2018-12-22T02:36:05.171Z,90.60
2018-12-22T02:40:09.636Z,90.90
2018-12-22T02:44:13.800Z,90.80
2018-12-22T02:48:17.919Z,90.80
2018-12-22T02:52:22.013Z,90.70
2018-12-22T02:56:26.199Z,90.80
2018-12-22T03:00:30.272Z,91.10
2018-12-22T03:04:34.431Z,91.20
2018-12-22T03:08:38.521Z,90.80
2018-12-22T03:12:42.677Z,90.70
2018-12-22T03:16:47.321Z,90.20
2018-12-22T03:20:51.415Z,90.10
2018-12-22T03:24:55.503Z,90.50
2018-12-22T03:28:59.630Z,90.90
2018-12-22T03:33:03.719Z,90.90
2018-12-22T03:37:07.906Z,90.90
2018-12-22T03:41:11.998Z,90.80
2018-12-22T03:45:16.131Z,90.60
2018-12-22T03:49:20.193Z,90.80
2018-12-22T03:53:24.301Z,90.50
2018-12-22T03:57:28.394Z,89.60
2018-12-22T04:01:32.480Z,90.00
2018-12-22T04:05:36.571Z,88.80
2018-12-22T04:09:40.661Z,88.20
2018-12-22T04:13:44.757Z,88.10
2018-12-22T04:17:48.913Z,87.90
2018-12-22T04:21:53.615Z,87.70
2018-12-22T04:25:57.698Z,87.00
2018-12-22T04:30:01.851Z,87.10
2018-12-22T04:34:05.942Z,86.50
2018-12-22T04:38:10.095Z,87.00
2018-12-22T04:42:14.192Z,86.40
2018-12-22T04:46:18.285Z,86.70
2018-12-22T04:50:22.381Z,86.30
2018-12-22T04:54:26.457Z,85.30
2018-12-22T04:58:30.545Z,84.70
2018-12-22T05:02:34.638Z,84.70
2018-12-22T05:06:38.724Z,84.90
2018-12-22T05:10:42.808Z,84.80
2018-12-22T05:14:46.893Z,84.90
2018-12-22T05:18:50.978Z,83.40
2018-12-22T05:22:55.106Z,82.70
2018-12-22T05:26:59.197Z,82.80
2018-12-22T05:31:03.336Z,82.00
2018-12-22T05:35:07.579Z,81.70
2018-12-22T05:39:11.686Z,81.10
2018-12-22T05:43:15.810Z,80.80
2018-12-22T05:47:19.934Z,80.50
2018-12-22T05:51:24.014Z,80.20
2018-12-22T05:55:28.137Z,79.90
2018-12-22T05:59:32.218Z,79.50
2018-12-22T06:03:36.330Z,78.50
2018-12-22T06:07:40.437Z,79.10
2018-12-22T06:11:44.534Z,78.50
2018-12-22T06:15:48.724Z,78.30
2018-12-22T06:19:52.885Z,77.40
2018-12-22T06:23:56.999Z,79.00
2018-12-22T06:28:01.081Z,78.60
2018-12-22T06:32:05.263Z,79.20
2018-12-22T06:36:10.561Z,80.10
2018-12-22T06:40:14.650Z,80.20
2018-12-22T06:44:18.760Z,80.20
2018-12-22T06:48:22.896Z,79.80
2018-12-22T06:52:26.990Z,79.80
2018-12-22T06:56:31.146Z,79.00
2018-12-22T07:00:35.261Z,79.20
2018-12-22T07:04:39.333Z,79.00
2018-12-22T07:08:43.425Z,78.80
2018-12-22T07:12:47.517Z,77.70
2018-12-22T07:16:51.642Z,77.70
2018-12-22T07:20:55.871Z,77.80
2018-12-22T07:25:00.034Z,77.80
2018-12-22T07:29:04.330Z,78.20
2018-12-22T07:33:08.417Z,78.60
2018-12-22T07:37:12.503Z,79.60
2018-12-22T07:41:16.610Z,81.20
2018-12-22T07:45:20.703Z,81.90
2018-12-22T07:49:24.806Z,82.40
2018-12-22T07:53:28.919Z,83.60
2018-12-22T07:57:32.990Z,83.70
2018-12-22T08:01:37.107Z,84.00
2018-12-22T08:05:41.213Z,83.80
2018-12-22T08:09:45.302Z,82.50
2018-12-22T08:13:49.434Z,82.10
2018-12-22T08:17:53.518Z,81.90
2018-12-22T08:21:57.741Z,79.70
2018-12-22T08:26:01.855Z,79.20
2018-12-22T08:30:08.844Z,79.40
2018-12-22T08:34:12.936Z,78.60
2018-12-22T08:38:17.010Z,78.80
2018-12-22T08:42:21.246Z,79.20
2018-12-22T08:46:25.513Z,79.00
2018-12-22T08:50:32.550Z,78.90
2018-12-22T08:54:36.637Z,80.10
2018-12-22T08:58:40.733Z,82.50
2018-12-22T09:02:44.874Z,82.90
2018-12-22T09:06:48.965Z,83.10
2018-12-22T09:10:53.058Z,82.60
2018-12-22T09:14:57.211Z,82.60
2018-12-22T09:19:01.325Z,82.90
2018-12-22T09:23:05.438Z,83.40
2018-12-22T09:27:09.661Z,84.30
2018-12-22T09:31:13.740Z,84.80
2018-12-22T09:35:17.837Z,83.80
2018-12-22T09:39:21.893Z,83.30
2018-12-22T09:43:25.996Z,84.00
2018-12-22T09:47:30.223Z,84.20
2018-12-22T09:51:34.278Z,83.60
2018-12-22T09:55:39.353Z,83.10
2018-12-22T09:59:43.444Z,83.50
2018-12-22T10:03:47.530Z,82.50
2018-12-22T10:07:51.626Z,83.10
2018-12-22T10:11:55.775Z,82.30
2018-12-22T10:15:59.882Z,82.50
2018-12-22T10:20:07.164Z,80.40
2018-12-22T10:24:11.236Z,79.00
2018-12-22T10:28:15.338Z,78.30
2018-12-22T10:32:19.480Z,78.20
2018-12-22T10:36:23.590Z,78.50
2018-12-22T10:40:27.685Z,78.00
2018-12-22T10:44:31.750Z,76.90
2018-12-22T10:48:35.841Z,76.90
2018-12-22T10:52:39.923Z,76.50
2018-12-22T10:56:44.072Z,75.40
2018-12-22T11:00:48.157Z,75.50
2018-12-22T11:04:52.224Z,74.80
2018-12-22T11:08:56.317Z,73.20
2018-12-22T11:13:00.405Z,73.60
2018-12-22T11:17:04.557Z,74.20
2018-12-22T11:21:08.712Z,74.00
2018-12-22T11:25:15.191Z,75.10
2018-12-22T11:29:19.798Z,72.50
2018-12-22T11:33:23.885Z,72.10
2018-12-22T11:37:27.984Z,72.50
2018-12-22T11:41:32.070Z,74.70
2018-12-22T11:45:36.159Z,75.60
2018-12-22T11:49:40.592Z,77.50
2018-12-22T11:53:44.679Z,78.50
2018-12-22T11:57:48.756Z,80.00
2018-12-22T12:01:52.833Z,79.80
2018-12-22T12:05:56.912Z,80.90
2018-12-22T12:10:01.001Z,79.40
2018-12-22T12:14:05.162Z,79.80
2018-12-22T12:22:49.070Z,80.20
2018-12-22T12:35:46.892Z,79.30
2018-12-22T12:39:50.977Z,71.10
2018-12-22T12:43:55.095Z,63.20
2018-12-22T12:47:59.190Z,64.30
2018-12-22T12:52:03.279Z,67.00
2018-12-22T12:56:07.523Z,72.00
2018-12-22T13:00:19.165Z,72.40
2018-12-22T13:04:23.352Z,72.00
2018-12-22T13:08:27.424Z,72.20
2018-12-22T13:12:51.349Z,72.50
2018-12-22T13:16:55.457Z,72.30
2018-12-22T13:25:49.062Z,72.40
2018-12-22T13:29:53.131Z,71.80
2018-12-22T13:33:57.250Z,71.90
2018-12-22T13:42:48.778Z,73.70
2018-12-22T13:46:52.928Z,74.00
2018-12-22T13:50:57.136Z,73.60
2018-12-22T13:55:01.263Z,72.70
2018-12-22T14:03:49.286Z,72.80
2018-12-22T14:07:53.394Z,72.10
2018-12-22T14:11:57.519Z,72.20
2018-12-22T14:16:01.896Z,72.60
2018-12-22T14:24:49.091Z,73.90
2018-12-22T14:28:53.209Z,73.30
2018-12-22T14:32:57.287Z,73.80
2018-12-22T14:37:01.389Z,74.00
2018-12-22T14:45:49.278Z,73.00
2018-12-22T14:49:53.382Z,73.60
2018-12-22T14:53:57.462Z,77.30
2018-12-22T14:58:02.880Z,78.40
2018-12-22T15:02:06.976Z,78.70
2018-12-22T15:06:11.065Z,79.20
2018-12-22T15:10:15.229Z,79.00
2018-12-22T15:14:19.318Z,78.30
2018-12-22T15:18:23.414Z,78.00
2018-12-22T15:22:27.507Z,77.40
2018-12-22T15:26:31.602Z,77.80
2018-12-22T15:30:35.673Z,78.00
2018-12-22T15:34:39.763Z,77.80
2018-12-22T15:38:43.858Z,78.00
2018-12-22T15:42:48.937Z,78.10
2018-12-22T15:46:53.095Z,78.10
2018-12-22T15:50:57.215Z,77.80
2018-12-22T15:55:01.310Z,78.50
2018-12-22T15:59:05.399Z,78.50
2018-12-22T16:03:09.498Z,78.90
2018-12-22T16:07:13.598Z,78.70
2018-12-22T16:11:17.698Z,78.80
2018-12-22T16:15:25.341Z,79.70
2018-12-22T16:19:29.430Z,79.80
2018-12-22T16:23:48.190Z,82.40
2018-12-22T16:28:16.089Z,83.10
2018-12-22T16:32:20.226Z,82.90
2018-12-22T16:36:24.328Z,83.00
2018-12-22T16:40:28.760Z,82.40
2018-12-22T16:44:32.860Z,81.70
2018-12-22T16:48:37.110Z,82.30
2018-12-22T16:52:41.238Z,82.00
2018-12-22T16:56:45.402Z,81.80
2018-12-22T17:05:37.334Z,80.20
2018-12-22T17:09:41.438Z,81.00
2018-12-22T17:13:45.902Z,81.00
2018-12-22T17:17:50.028Z,79.90
2018-12-22T17:21:54.106Z,81.10
2018-12-22T17:26:00.217Z,80.50
2018-12-22T17:30:07.285Z,81.00
2018-12-22T17:34:11.508Z,80.10
2018-12-22T17:38:15.614Z,80.70
2018-12-22T17:42:20.781Z,80.10
2018-12-22T17:46:25.064Z,79.60
2018-12-22T17:50:29.147Z,79.60
2018-12-22T17:54:33.245Z,79.80
2018-12-22T17:58:37.585Z,79.70
2018-12-22T18:02:46.394Z,78.20
2018-12-22T18:06:50.486Z,78.50
2018-12-22T18:10:54.570Z,78.90
2018-12-22T18:14:58.775Z,78.70
2018-12-22T18:19:02.898Z,79.00
2018-12-22T18:23:07.023Z,78.50
2018-12-22T18:27:11.144Z,78.30
2018-12-22T18:31:15.291Z,78.50
2018-12-22T18:35:19.390Z,78.80
2018-12-22T18:39:23.481Z,79.00
2018-12-22T18:43:27.637Z,78.90
2018-12-22T18:47:31.705Z,79.30
2018-12-22T18:51:35.806Z,79.40
2018-12-22T18:55:39.902Z,79.20
2018-12-22T18:59:44.021Z,79.40
2018-12-22T19:03:48.103Z,78.80
2018-12-22T19:07:52.375Z,78.00
2018-12-22T19:11:56.484Z,77.70
2018-12-22T19:16:00.570Z,77.30
2018-12-22T19:20:16.354Z,77.40
2018-12-22T19:24:20.449Z,76.40
2018-12-22T19:28:24.863Z,76.70
2018-12-22T19:32:28.975Z,76.20
2018-12-22T19:36:33.099Z,75.50
2018-12-22T19:40:37.225Z,75.70
2018-12-22T19:44:41.324Z,75.20
2018-12-22T19:48:45.426Z,75.00
2018-12-22T19:52:49.522Z,75.30
2018-12-22T19:56:53.600Z,75.50
2018-12-22T20:00:58.011Z,75.50
2018-12-22T20:05:02.107Z,76.30
2018-12-22T20:09:06.325Z,76.80
2018-12-22T20:13:10.432Z,76.20
2018-12-22T20:17:14.509Z,77.00
2018-12-22T20:21:18.597Z,75.50
2018-12-22T20:25:22.695Z,74.60
2018-12-22T20:29:26.784Z,75.60
2018-12-22T20:33:30.867Z,76.40
2018-12-22T20:37:34.941Z,75.40
2018-12-22T20:41:39.083Z,75.80
2018-12-22T20:45:43.228Z,75.80
2018-12-22T20:49:47.319Z,75.70
2018-12-22T20:53:52.308Z,75.50
2018-12-22T20:57:56.403Z,74.80
2018-12-22T21:02:00.509Z,74.30
2018-12-22T21:06:04.873Z,75.00
2018-12-22T21:10:09.054Z,74.90
2018-12-22T21:14:13.121Z,75.10
2018-12-22T21:18:17.234Z,75.00
2018-12-22T21:22:21.350Z,75.30
2018-12-22T21:26:25.432Z,75.80
2018-12-22T21:30:29.560Z,76.00
2018-12-22T21:34:34.006Z,76.50
2018-12-22T21:38:38.931Z,75.50
2018-12-22T21:42:43.023Z,75.10
2018-12-22T21:46:47.276Z,74.80
2018-12-22T21:50:51.336Z,75.50
2018-12-22T21:54:55.424Z,75.00
2018-12-22T21:58:59.514Z,75.80
2018-12-22T22:03:03.620Z,76.20
2018-12-22T22:07:07.699Z,75.80
2018-12-22T22:11:11.790Z,75.10
2018-12-22T22:15:15.902Z,75.00
2018-12-22T22:19:20.057Z,75.20
2018-12-22T22:23:48.030Z,74.90
2018-12-22T22:27:52.113Z,74.70
2018-12-22T22:31:56.328Z,74.70
2018-12-22T22:36:00.404Z,74.80
2018-12-22T22:40:05.733Z,74.80
2018-12-22T22:44:11.455Z,75.20
2018-12-22T22:48:15.592Z,75.10
2018-12-22T22:52:47.161Z,75.10
2018-12-22T22:56:51.279Z,75.30
2018-12-22T23:00:55.366Z,75.30
2018-12-22T23:04:59.475Z,74.60
2018-12-22T23:09:05.096Z,74.00
2018-12-22T23:13:09.281Z,74.90
2018-12-22T23:17:13.363Z,75.20
2018-12-22T23:21:17.454Z,75.80
2018-12-22T23:25:21.553Z,76.00
2018-12-22T23:29:25.650Z,75.60
2018-12-22T23:33:29.734Z,75.30
2018-12-22T23:37:33.832Z,75.40
2018-12-22T23:41:48.681Z,75.50
2018-12-22T23:45:52.805Z,75.00
2018-12-22T23:49:56.977Z,75.10
2018-12-22T23:54:01.082Z,74.90
2018-12-22T23:58:05.177Z,74.50
